sensor_id;sensor_type;location;lat;lon;timestamp;temperature;humidity
38902;DHT22;24661;53.566;9.910;2023-04-30T00:01:28;5.00;99.90
38902;DHT22;24661;53.566;9.910;2023-04-30T00:03:55;5.00;99.90
38902;DHT22;24661;53.566;9.910;2023-04-30T00:06:21;5.00;99.90
38902;DHT22;24661;53.566;9.910;2023-04-30T00:08:47;5.00;99.90
38902;DHT22;24661;53.566;9.910;2023-04-30T00:11:12;5.00;99.90
38902;DHT22;24661;53.566;9.910;2023-04-30T00:13:38;5.00;99.90
38902;DHT22;24661;53.566;9.910;2023-04-30T00:16:04;5.00;99.90
38902;DHT22;24661;53.566;9.910;2023-04-30T00:18:29;5.00;99.90
38902;DHT22;24661;53.566;9.910;2023-04-30T00:20:55;4.90;99.90
38902;DHT22;24661;53.566;9.910;2023-04-30T00:23:21;4.90;99.90
38902;DHT22;24661;53.566;9.910;2023-04-30T00:25:46;4.90;99.90
38902;DHT22;24661;53.566;9.910;2023-04-30T00:28:12;4.90;99.90
38902;DHT22;24661;53.566;9.910;2023-04-30T00:30:37;4.90;99.90
38902;DHT22;24661;53.566;9.910;2023-04-30T00:33:03;4.90;99.90
38902;DHT22;24661;53.566;9.910;2023-04-30T00:35:29;4.90;99.90
38902;DHT22;24661;53.566;9.910;2023-04-30T00:37:54;4.80;99.90
38902;DHT22;24661;53.566;9.910;2023-04-30T00:40:20;4.80;99.90
38902;DHT22;24661;53.566;9.910;2023-04-30T00:42:45;4.80;99.90
38902;DHT22;24661;53.566;9.910;2023-04-30T00:45:13;4.80;99.90
38902;DHT22;24661;53.566;9.910;2023-04-30T00:47:39;4.80;99.90
38902;DHT22;24661;53.566;9.910;2023-04-30T00:50:05;4.80;99.90
38902;DHT22;24661;53.566;9.910;2023-04-30T00:52:31;4.80;99.90
38902;DHT22;24661;53.566;9.910;2023-04-30T00:54:57;4.80;99.90
38902;DHT22;24661;53.566;9.910;2023-04-30T00:57:22;4.70;99.90
38902;DHT22;24661;53.566;9.910;2023-04-30T00:59:50;4.80;99.90
38902;DHT22;24661;53.566;9.910;2023-04-30T01:02:16;4.70;99.90
38902;DHT22;24661;53.566;9.910;2023-04-30T01:04:42;4.70;99.90
38902;DHT22;24661;53.566;9.910;2023-04-30T01:07:08;4.70;99.90
38902;DHT22;24661;53.566;9.910;2023-04-30T01:09:33;4.60;99.90
38902;DHT22;24661;53.566;9.910;2023-04-30T01:12:12;4.60;99.90
38902;DHT22;24661;53.566;9.910;2023-04-30T01:14:52;4.60;99.90
38902;DHT22;24661;53.566;9.910;2023-04-30T01:17:33;4.60;99.90
38902;DHT22;24661;53.566;9.910;2023-04-30T01:20:00;4.60;99.90
38902;DHT22;24661;53.566;9.910;2023-04-30T01:25:31;4.60;99.90
38902;DHT22;24661;53.566;9.910;2023-04-30T01:28:15;4.50;99.90
38902;DHT22;24661;53.566;9.910;2023-04-30T01:30:41;4.50;99.90
38902;DHT22;24661;53.566;9.910;2023-04-30T01:33:09;4.50;99.90
38902;DHT22;24661;53.566;9.910;2023-04-30T01:41:09;4.50;99.90
38902;DHT22;24661;53.566;9.910;2023-04-30T01:46:25;4.40;99.90
38902;DHT22;24661;53.566;9.910;2023-04-30T01:51:30;4.40;99.90
38902;DHT22;24661;53.566;9.910;2023-04-30T01:54:01;4.40;99.90
38902;DHT22;24661;53.566;9.910;2023-04-30T01:56:31;4.40;99.90
38902;DHT22;24661;53.566;9.910;2023-04-30T01:59:00;4.40;99.90
38902;DHT22;24661;53.566;9.910;2023-04-30T02:01:27;4.50;99.90
38902;DHT22;24661;53.566;9.910;2023-04-30T02:03:53;4.50;99.90
38902;DHT22;24661;53.566;9.910;2023-04-30T02:06:19;4.40;99.90
38902;DHT22;24661;53.566;9.910;2023-04-30T02:08:44;4.40;99.90
38902;DHT22;24661;53.566;9.910;2023-04-30T02:11:10;4.40;99.90
38902;DHT22;24661;53.566;9.910;2023-04-30T02:13:36;4.40;99.90
38902;DHT22;24661;53.566;9.910;2023-04-30T02:16:01;4.40;99.90
38902;DHT22;24661;53.566;9.910;2023-04-30T02:18:28;4.40;99.90
38902;DHT22;24661;53.566;9.910;2023-04-30T02:20:54;4.40;99.90
38902;DHT22;24661;53.566;9.910;2023-04-30T02:23:19;4.40;99.90
38902;DHT22;24661;53.566;9.910;2023-04-30T02:25:45;4.40;99.90
38902;DHT22;24661;53.566;9.910;2023-04-30T02:28:13;4.40;99.90
38902;DHT22;24661;53.566;9.910;2023-04-30T02:30:39;4.40;99.90
38902;DHT22;24661;53.566;9.910;2023-04-30T02:33:04;4.40;99.90
38902;DHT22;24661;53.566;9.910;2023-04-30T02:35:30;4.30;99.90
38902;DHT22;24661;53.566;9.910;2023-04-30T02:37:56;4.30;99.90
38902;DHT22;24661;53.566;9.910;2023-04-30T02:40:21;4.30;99.90
38902;DHT22;24661;53.566;9.910;2023-04-30T02:42:47;4.20;99.90
38902;DHT22;24661;53.566;9.910;2023-04-30T02:45:13;4.20;99.90
38902;DHT22;24661;53.566;9.910;2023-04-30T02:47:38;4.20;99.90
38902;DHT22;24661;53.566;9.910;2023-04-30T02:50:04;4.20;99.90
38902;DHT22;24661;53.566;9.910;2023-04-30T02:52:30;4.10;99.90
38902;DHT22;24661;53.566;9.910;2023-04-30T02:54:56;4.10;99.90
38902;DHT22;24661;53.566;9.910;2023-04-30T02:57:22;4.10;99.90
38902;DHT22;24661;53.566;9.910;2023-04-30T02:59:47;4.10;99.90
38902;DHT22;24661;53.566;9.910;2023-04-30T03:02:13;4.10;99.90
38902;DHT22;24661;53.566;9.910;2023-04-30T03:04:38;4.10;99.90
38902;DHT22;24661;53.566;9.910;2023-04-30T03:07:04;4.00;99.90
38902;DHT22;24661;53.566;9.910;2023-04-30T03:09:31;4.00;99.90
38902;DHT22;24661;53.566;9.910;2023-04-30T03:11:56;3.90;99.90
38902;DHT22;24661;53.566;9.910;2023-04-30T03:14:22;3.90;99.90
38902;DHT22;24661;53.566;9.910;2023-04-30T03:16:48;3.90;99.90
38902;DHT22;24661;53.566;9.910;2023-04-30T03:19:13;3.90;99.90
38902;DHT22;24661;53.566;9.910;2023-04-30T03:21:39;3.90;99.90
38902;DHT22;24661;53.566;9.910;2023-04-30T03:24:05;3.80;99.90
38902;DHT22;24661;53.566;9.910;2023-04-30T03:26:31;3.90;99.90
38902;DHT22;24661;53.566;9.910;2023-04-30T03:28:57;3.90;99.90
38902;DHT22;24661;53.566;9.910;2023-04-30T03:31:22;3.80;99.90
38902;DHT22;24661;53.566;9.910;2023-04-30T03:33:48;3.90;99.90
38902;DHT22;24661;53.566;9.910;2023-04-30T03:36:14;3.90;99.90
38902;DHT22;24661;53.566;9.910;2023-04-30T03:38:40;3.90;99.90
38902;DHT22;24661;53.566;9.910;2023-04-30T03:41:07;3.90;99.90
38902;DHT22;24661;53.566;9.910;2023-04-30T03:43:32;3.90;99.90
38902;DHT22;24661;53.566;9.910;2023-04-30T03:45:58;3.90;99.90
38902;DHT22;24661;53.566;9.910;2023-04-30T03:48:23;2.80;99.90
38902;DHT22;24661;53.566;9.910;2023-04-30T03:50:49;3.90;99.90
38902;DHT22;24661;53.566;9.910;2023-04-30T03:53:15;3.90;99.90
38902;DHT22;24661;53.566;9.910;2023-04-30T03:55:41;3.90;99.90
38902;DHT22;24661;53.566;9.910;2023-04-30T03:58:06;4.00;99.90
38902;DHT22;24661;53.566;9.910;2023-04-30T04:00:32;4.00;99.90
38902;DHT22;24661;53.566;9.910;2023-04-30T04:02:58;4.10;99.90
38902;DHT22;24661;53.566;9.910;2023-04-30T04:05:24;4.10;99.90
38902;DHT22;24661;53.566;9.910;2023-04-30T04:07:50;4.20;99.90
38902;DHT22;24661;53.566;9.910;2023-04-30T04:10:15;4.10;99.90
38902;DHT22;24661;53.566;9.910;2023-04-30T04:12:42;4.10;99.90
38902;DHT22;24661;53.566;9.910;2023-04-30T04:15:08;4.10;99.90
38902;DHT22;24661;53.566;9.910;2023-04-30T04:17:34;4.20;99.90
38902;DHT22;24661;53.566;9.910;2023-04-30T04:19:59;4.30;99.90
38902;DHT22;24661;53.566;9.910;2023-04-30T04:22:25;4.20;99.90
38902;DHT22;24661;53.566;9.910;2023-04-30T04:24:51;4.30;99.90
38902;DHT22;24661;53.566;9.910;2023-04-30T04:27:16;4.40;99.90
38902;DHT22;24661;53.566;9.910;2023-04-30T04:29:42;4.40;99.90
38902;DHT22;24661;53.566;9.910;2023-04-30T04:32:08;4.40;99.90
38902;DHT22;24661;53.566;9.910;2023-04-30T04:34:34;4.50;99.90
38902;DHT22;24661;53.566;9.910;2023-04-30T04:37:00;4.50;99.90
38902;DHT22;24661;53.566;9.910;2023-04-30T04:39:25;4.50;99.90
38902;DHT22;24661;53.566;9.910;2023-04-30T04:41:51;4.40;99.90
38902;DHT22;24661;53.566;9.910;2023-04-30T04:44:17;4.40;99.90
38902;DHT22;24661;53.566;9.910;2023-04-30T04:46:43;4.50;99.90
38902;DHT22;24661;53.566;9.910;2023-04-30T04:49:10;4.50;99.90
38902;DHT22;24661;53.566;9.910;2023-04-30T04:51:36;4.60;99.90
38902;DHT22;24661;53.566;9.910;2023-04-30T04:54:04;4.60;99.90
38902;DHT22;24661;53.566;9.910;2023-04-30T04:56:30;4.60;99.90
38902;DHT22;24661;53.566;9.910;2023-04-30T04:58:57;4.60;99.90
38902;DHT22;24661;53.566;9.910;2023-04-30T05:01:22;4.60;99.90
38902;DHT22;24661;53.566;9.910;2023-04-30T05:03:48;4.70;99.90
38902;DHT22;24661;53.566;9.910;2023-04-30T05:06:14;4.70;99.90
38902;DHT22;24661;53.566;9.910;2023-04-30T05:08:39;4.80;99.90
38902;DHT22;24661;53.566;9.910;2023-04-30T05:11:05;4.80;99.90
38902;DHT22;24661;53.566;9.910;2023-04-30T05:13:30;4.90;99.90
38902;DHT22;24661;53.566;9.910;2023-04-30T05:15:56;4.90;99.90
38902;DHT22;24661;53.566;9.910;2023-04-30T05:18:21;5.00;99.90
38902;DHT22;24661;53.566;9.910;2023-04-30T05:20:47;5.00;99.90
38902;DHT22;24661;53.566;9.910;2023-04-30T05:23:13;5.10;99.90
38902;DHT22;24661;53.566;9.910;2023-04-30T05:25:38;5.20;99.90
38902;DHT22;24661;53.566;9.910;2023-04-30T05:28:04;5.20;99.90
38902;DHT22;24661;53.566;9.910;2023-04-30T05:30:31;5.20;99.90
38902;DHT22;24661;53.566;9.910;2023-04-30T05:32:56;5.30;99.90
38902;DHT22;24661;53.566;9.910;2023-04-30T05:35:22;5.40;99.90
38902;DHT22;24661;53.566;9.910;2023-04-30T05:37:48;5.40;99.90
38902;DHT22;24661;53.566;9.910;2023-04-30T05:40:14;5.50;99.90
38902;DHT22;24661;53.566;9.910;2023-04-30T05:42:40;5.50;99.90
38902;DHT22;24661;53.566;9.910;2023-04-30T05:45:08;5.60;99.90
38902;DHT22;24661;53.566;9.910;2023-04-30T05:47:34;5.60;99.90
38902;DHT22;24661;53.566;9.910;2023-04-30T05:49:59;5.70;99.90
38902;DHT22;24661;53.566;9.910;2023-04-30T05:52:25;5.70;99.90
38902;DHT22;24661;53.566;9.910;2023-04-30T05:54:50;5.80;99.90
38902;DHT22;24661;53.566;9.910;2023-04-30T05:57:16;5.90;99.90
38902;DHT22;24661;53.566;9.910;2023-04-30T05:59:42;5.90;99.90
38902;DHT22;24661;53.566;9.910;2023-04-30T06:02:08;6.00;99.90
38902;DHT22;24661;53.566;9.910;2023-04-30T06:04:33;6.10;99.90
38902;DHT22;24661;53.566;9.910;2023-04-30T06:06:59;6.20;99.90
38902;DHT22;24661;53.566;9.910;2023-04-30T06:09:25;6.20;99.90
38902;DHT22;24661;53.566;9.910;2023-04-30T06:11:50;6.30;99.90
38902;DHT22;24661;53.566;9.910;2023-04-30T06:14:19;6.40;99.90
38902;DHT22;24661;53.566;9.910;2023-04-30T06:16:46;6.50;99.90
38902;DHT22;24661;53.566;9.910;2023-04-30T06:19:12;6.60;99.90
38902;DHT22;24661;53.566;9.910;2023-04-30T06:21:38;6.70;99.90
38902;DHT22;24661;53.566;9.910;2023-04-30T06:24:04;6.80;99.90
38902;DHT22;24661;53.566;9.910;2023-04-30T06:26:31;6.80;99.90
38902;DHT22;24661;53.566;9.910;2023-04-30T06:28:56;6.90;99.90
38902;DHT22;24661;53.566;9.910;2023-04-30T06:31:22;7.00;99.90
38902;DHT22;24661;53.566;9.910;2023-04-30T06:33:48;7.00;99.90
38902;DHT22;24661;53.566;9.910;2023-04-30T06:36:14;7.10;99.90
38902;DHT22;24661;53.566;9.910;2023-04-30T06:38:40;7.10;99.90
38902;DHT22;24661;53.566;9.910;2023-04-30T06:41:07;7.20;99.90
38902;DHT22;24661;53.566;9.910;2023-04-30T06:43:33;7.20;99.90
38902;DHT22;24661;53.566;9.910;2023-04-30T06:45:59;7.30;99.90
38902;DHT22;24661;53.566;9.910;2023-04-30T06:48:25;8.40;99.90
38902;DHT22;24661;53.566;9.910;2023-04-30T06:50:51;7.30;99.90
38902;DHT22;24661;53.566;9.910;2023-04-30T06:53:17;7.50;99.90
38902;DHT22;24661;53.566;9.910;2023-04-30T06:55:44;7.50;99.90
38902;DHT22;24661;53.566;9.910;2023-04-30T06:58:10;7.50;99.90
38902;DHT22;24661;53.566;9.910;2023-04-30T07:00:36;7.60;99.90
38902;DHT22;24661;53.566;9.910;2023-04-30T07:03:02;7.60;99.90
38902;DHT22;24661;53.566;9.910;2023-04-30T07:05:29;7.70;99.90
38902;DHT22;24661;53.566;9.910;2023-04-30T07:07:56;7.80;99.90
38902;DHT22;24661;53.566;9.910;2023-04-30T07:10:22;7.90;99.90
38902;DHT22;24661;53.566;9.910;2023-04-30T07:12:47;8.10;99.90
38902;DHT22;24661;53.566;9.910;2023-04-30T07:15:13;8.30;99.90
38902;DHT22;24661;53.566;9.910;2023-04-30T07:17:39;8.40;99.90
38902;DHT22;24661;53.566;9.910;2023-04-30T07:20:07;8.50;99.90
38902;DHT22;24661;53.566;9.910;2023-04-30T07:22:32;8.40;99.90
38902;DHT22;24661;53.566;9.910;2023-04-30T07:24:58;8.30;99.90
38902;DHT22;24661;53.566;9.910;2023-04-30T07:27:25;8.30;99.90
38902;DHT22;24661;53.566;9.910;2023-04-30T07:29:51;8.40;99.90
38902;DHT22;24661;53.566;9.910;2023-04-30T07:32:16;8.50;99.90
38902;DHT22;24661;53.566;9.910;2023-04-30T07:34:42;8.50;99.90
38902;DHT22;24661;53.566;9.910;2023-04-30T07:37:08;8.50;99.90
38902;DHT22;24661;53.566;9.910;2023-04-30T07:39:34;8.60;99.90
38902;DHT22;24661;53.566;9.910;2023-04-30T07:42:01;8.70;99.90
38902;DHT22;24661;53.566;9.910;2023-04-30T07:44:27;7.60;99.90
38902;DHT22;24661;53.566;9.910;2023-04-30T07:46:52;9.00;99.90
38902;DHT22;24661;53.566;9.910;2023-04-30T07:49:18;9.10;99.90
38902;DHT22;24661;53.566;9.910;2023-04-30T07:51:44;9.20;99.90
38902;DHT22;24661;53.566;9.910;2023-04-30T07:54:10;9.30;99.90
38902;DHT22;24661;53.566;9.910;2023-04-30T07:56:36;9.40;99.90
38902;DHT22;24661;53.566;9.910;2023-04-30T07:59:02;9.30;99.90
38902;DHT22;24661;53.566;9.910;2023-04-30T08:01:27;9.30;99.90
38902;DHT22;24661;53.566;9.910;2023-04-30T08:03:53;9.10;99.90
38902;DHT22;24661;53.566;9.910;2023-04-30T08:06:18;9.00;99.90
38902;DHT22;24661;53.566;9.910;2023-04-30T08:08:44;9.00;99.90
38902;DHT22;24661;53.566;9.910;2023-04-30T08:11:10;9.20;99.90
38902;DHT22;24661;53.566;9.910;2023-04-30T08:13:36;9.10;99.90
38902;DHT22;24661;53.566;9.910;2023-04-30T08:16:02;9.00;99.90
38902;DHT22;24661;53.566;9.910;2023-04-30T08:18:28;9.20;99.90
38902;DHT22;24661;53.566;9.910;2023-04-30T08:20:54;9.30;99.90
38902;DHT22;24661;53.566;9.910;2023-04-30T08:23:20;9.40;99.90
38902;DHT22;24661;53.566;9.910;2023-04-30T08:25:45;9.60;99.90
38902;DHT22;24661;53.566;9.910;2023-04-30T08:28:11;9.60;99.90
38902;DHT22;24661;53.566;9.910;2023-04-30T08:30:37;9.60;99.90
38902;DHT22;24661;53.566;9.910;2023-04-30T08:33:03;9.70;99.90
38902;DHT22;24661;53.566;9.910;2023-04-30T08:35:29;9.80;99.90
38902;DHT22;24661;53.566;9.910;2023-04-30T08:37:54;9.90;99.90
38902;DHT22;24661;53.566;9.910;2023-04-30T08:40:20;10.00;99.90
38902;DHT22;24661;53.566;9.910;2023-04-30T08:42:52;10.10;99.90
38902;DHT22;24661;53.566;9.910;2023-04-30T08:45:23;10.00;99.90
38902;DHT22;24661;53.566;9.910;2023-04-30T08:47:48;9.90;99.90
38902;DHT22;24661;53.566;9.910;2023-04-30T08:50:14;10.00;99.90
38902;DHT22;24661;53.566;9.910;2023-04-30T08:52:41;10.10;99.90
38902;DHT22;24661;53.566;9.910;2023-04-30T08:55:08;10.20;99.90
38902;DHT22;24661;53.566;9.910;2023-04-30T08:57:36;9.60;99.90
38902;DHT22;24661;53.566;9.910;2023-04-30T09:00:03;10.00;99.90
38902;DHT22;24661;53.566;9.910;2023-04-30T09:02:31;9.90;99.90
38902;DHT22;24661;53.566;9.910;2023-04-30T09:04:57;9.90;99.90
38902;DHT22;24661;53.566;9.910;2023-04-30T09:07:23;9.90;99.90
38902;DHT22;24661;53.566;9.910;2023-04-30T09:09:52;10.00;99.90
38902;DHT22;24661;53.566;9.910;2023-04-30T09:12:18;10.00;99.90
38902;DHT22;24661;53.566;9.910;2023-04-30T09:15:04;10.00;99.90
38902;DHT22;24661;53.566;9.910;2023-04-30T09:17:31;10.20;99.90
38902;DHT22;24661;53.566;9.910;2023-04-30T09:20:07;10.20;99.90
38902;DHT22;24661;53.566;9.910;2023-04-30T09:22:34;10.30;99.90
38902;DHT22;24661;53.566;9.910;2023-04-30T09:25:01;10.40;99.90
38902;DHT22;24661;53.566;9.910;2023-04-30T09:27:26;10.50;99.90
38902;DHT22;24661;53.566;9.910;2023-04-30T09:29:54;10.60;99.90
38902;DHT22;24661;53.566;9.910;2023-04-30T09:32:26;10.50;99.90
38902;DHT22;24661;53.566;9.910;2023-04-30T09:35:31;10.50;99.90
38902;DHT22;24661;53.566;9.910;2023-04-30T09:37:59;10.60;99.90
38902;DHT22;24661;53.566;9.910;2023-04-30T09:40:38;10.60;99.90
38902;DHT22;24661;53.566;9.910;2023-04-30T09:43:05;10.50;99.90
38902;DHT22;24661;53.566;9.910;2023-04-30T09:45:47;10.70;99.90
38902;DHT22;24661;53.566;9.910;2023-04-30T09:48:17;10.80;99.90
38902;DHT22;24661;53.566;9.910;2023-04-30T09:50:43;10.80;99.90
38902;DHT22;24661;53.566;9.910;2023-04-30T09:53:13;10.90;99.90
38902;DHT22;24661;53.566;9.910;2023-04-30T09:55:44;10.80;99.90
38902;DHT22;24661;53.566;9.910;2023-04-30T09:58:11;10.80;99.90
38902;DHT22;24661;53.566;9.910;2023-04-30T10:00:38;10.80;99.90
38902;DHT22;24661;53.566;9.910;2023-04-30T10:03:06;10.80;99.90
38902;DHT22;24661;53.566;9.910;2023-04-30T10:05:45;10.90;99.90
38902;DHT22;24661;53.566;9.910;2023-04-30T10:10:51;11.00;99.90
38902;DHT22;24661;53.566;9.910;2023-04-30T10:13:19;11.00;99.90
38902;DHT22;24661;53.566;9.910;2023-04-30T10:15:50;11.00;99.90
38902;DHT22;24661;53.566;9.910;2023-04-30T10:18:25;10.80;99.90
38902;DHT22;24661;53.566;9.910;2023-04-30T10:20:53;10.80;99.90
38902;DHT22;24661;53.566;9.910;2023-04-30T10:23:20;11.00;99.90
38902;DHT22;24661;53.566;9.910;2023-04-30T10:25:46;11.20;99.90
38902;DHT22;24661;53.566;9.910;2023-04-30T10:28:13;11.40;99.90
38902;DHT22;24661;53.566;9.910;2023-04-30T10:30:40;11.50;99.90
38902;DHT22;24661;53.566;9.910;2023-04-30T10:35:50;11.50;99.90
38902;DHT22;24661;53.566;9.910;2023-04-30T10:38:21;11.60;99.90
38902;DHT22;24661;53.566;9.910;2023-04-30T10:40:49;11.60;99.90
38902;DHT22;24661;53.566;9.910;2023-04-30T10:43:19;11.70;99.90
38902;DHT22;24661;53.566;9.910;2023-04-30T10:45:48;11.80;99.90
38902;DHT22;24661;53.566;9.910;2023-04-30T10:48:15;11.90;99.90
38902;DHT22;24661;53.566;9.910;2023-04-30T10:50:42;11.80;99.90
38902;DHT22;24661;53.566;9.910;2023-04-30T10:53:12;11.70;99.90
38902;DHT22;24661;53.566;9.910;2023-04-30T10:55:53;11.80;99.90
38902;DHT22;24661;53.566;9.910;2023-04-30T10:58:35;11.80;99.90
38902;DHT22;24661;53.566;9.910;2023-04-30T11:01:14;12.00;99.90
38902;DHT22;24661;53.566;9.910;2023-04-30T11:04:02;12.20;99.90
38902;DHT22;24661;53.566;9.910;2023-04-30T11:06:54;12.20;99.90
38902;DHT22;24661;53.566;9.910;2023-04-30T11:12:03;12.20;99.90
38902;DHT22;24661;53.566;9.910;2023-04-30T11:14:31;12.20;99.90
38902;DHT22;24661;53.566;9.910;2023-04-30T11:16:58;12.20;99.90
38902;DHT22;24661;53.566;9.910;2023-04-30T11:19:26;12.30;99.90
38902;DHT22;24661;53.566;9.910;2023-04-30T11:27:24;12.40;99.90
38902;DHT22;24661;53.566;9.910;2023-04-30T11:29:50;12.50;99.90
38902;DHT22;24661;53.566;9.910;2023-04-30T11:32:18;12.60;99.90
38902;DHT22;24661;53.566;9.910;2023-04-30T11:34:43;12.50;99.90
38902;DHT22;24661;53.566;9.910;2023-04-30T11:37:18;12.60;99.90
38902;DHT22;24661;53.566;9.910;2023-04-30T11:39:44;12.60;99.90
38902;DHT22;24661;53.566;9.910;2023-04-30T11:42:17;12.70;99.90
38902;DHT22;24661;53.566;9.910;2023-04-30T11:44:44;12.80;99.90
38902;DHT22;24661;53.566;9.910;2023-04-30T11:47:12;12.90;99.90
38902;DHT22;24661;53.566;9.910;2023-04-30T11:49:37;13.00;99.90
38902;DHT22;24661;53.566;9.910;2023-04-30T11:52:03;12.80;99.90
38902;DHT22;24661;53.566;9.910;2023-04-30T11:54:32;12.90;99.90
38902;DHT22;24661;53.566;9.910;2023-04-30T11:56:59;13.00;99.90
38902;DHT22;24661;53.566;9.910;2023-04-30T11:59:29;12.90;99.90
38902;DHT22;24661;53.566;9.910;2023-04-30T12:01:56;12.80;99.90
38902;DHT22;24661;53.566;9.910;2023-04-30T12:04:22;13.10;99.90
38902;DHT22;24661;53.566;9.910;2023-04-30T12:06:48;13.20;99.90
38902;DHT22;24661;53.566;9.910;2023-04-30T12:09:14;13.40;99.90
38902;DHT22;24661;53.566;9.910;2023-04-30T12:11:40;13.50;99.90
38902;DHT22;24661;53.566;9.910;2023-04-30T12:14:08;13.40;99.90
38902;DHT22;24661;53.566;9.910;2023-04-30T12:16:48;13.70;99.90
38902;DHT22;24661;53.566;9.910;2023-04-30T12:19:18;13.70;99.90
38902;DHT22;24661;53.566;9.910;2023-04-30T12:21:45;13.80;99.90
38902;DHT22;24661;53.566;9.910;2023-04-30T12:24:18;13.90;99.90
38902;DHT22;24661;53.566;9.910;2023-04-30T12:26:44;13.90;99.90
38902;DHT22;24661;53.566;9.910;2023-04-30T12:29:20;14.00;99.90
38902;DHT22;24661;53.566;9.910;2023-04-30T12:31:48;14.10;99.90
38902;DHT22;24661;53.566;9.910;2023-04-30T12:34:15;14.10;99.90
38902;DHT22;24661;53.566;9.910;2023-04-30T12:36:41;14.10;99.90
38902;DHT22;24661;53.566;9.910;2023-04-30T12:39:12;14.20;99.90
38902;DHT22;24661;53.566;9.910;2023-04-30T12:44:22;13.90;99.90
38902;DHT22;24661;53.566;9.910;2023-04-30T12:46:52;13.90;99.90
38902;DHT22;24661;53.566;9.910;2023-04-30T12:49:32;14.00;99.90
38902;DHT22;24661;53.566;9.910;2023-04-30T12:52:01;14.20;99.90
38902;DHT22;24661;53.566;9.910;2023-04-30T12:54:28;14.20;99.90
38902;DHT22;24661;53.566;9.910;2023-04-30T12:59:36;13.80;99.90
38902;DHT22;24661;53.566;9.910;2023-04-30T13:02:12;13.80;99.90
38902;DHT22;24661;53.566;9.910;2023-04-30T13:04:40;14.00;99.90
38902;DHT22;24661;53.566;9.910;2023-04-30T13:07:06;14.10;99.90
38902;DHT22;24661;53.566;9.910;2023-04-30T13:09:32;14.20;99.90
38902;DHT22;24661;53.566;9.910;2023-04-30T13:11:58;14.30;99.90
38902;DHT22;24661;53.566;9.910;2023-04-30T13:14:24;14.30;99.90
38902;DHT22;24661;53.566;9.910;2023-04-30T13:16:50;14.30;99.90
38902;DHT22;24661;53.566;9.910;2023-04-30T13:19:15;14.40;99.90
38902;DHT22;24661;53.566;9.910;2023-04-30T13:21:41;14.60;99.90
38902;DHT22;24661;53.566;9.910;2023-04-30T13:24:06;14.60;99.90
38902;DHT22;24661;53.566;9.910;2023-04-30T13:26:32;14.40;99.90
38902;DHT22;24661;53.566;9.910;2023-04-30T13:28:58;14.50;99.90
38902;DHT22;24661;53.566;9.910;2023-04-30T13:31:23;14.60;99.90
38902;DHT22;24661;53.566;9.910;2023-04-30T13:33:49;14.60;99.90
38902;DHT22;24661;53.566;9.910;2023-04-30T13:36:16;14.80;99.90
38902;DHT22;24661;53.566;9.910;2023-04-30T13:38:42;15.00;99.90
38902;DHT22;24661;53.566;9.910;2023-04-30T13:41:07;15.20;99.90
38902;DHT22;24661;53.566;9.910;2023-04-30T13:43:33;15.20;99.90
38902;DHT22;24661;53.566;9.910;2023-04-30T13:45:59;15.30;99.90
38902;DHT22;24661;53.566;9.910;2023-04-30T13:48:24;15.20;99.90
38902;DHT22;24661;53.566;9.910;2023-04-30T13:50:53;15.00;99.90
38902;DHT22;24661;53.566;9.910;2023-04-30T13:53:19;15.20;99.90
38902;DHT22;24661;53.566;9.910;2023-04-30T13:55:45;15.40;99.90
38902;DHT22;24661;53.566;9.910;2023-04-30T13:58:11;15.30;99.90
38902;DHT22;24661;53.566;9.910;2023-04-30T14:00:37;15.40;99.90
38902;DHT22;24661;53.566;9.910;2023-04-30T14:03:03;15.30;99.90
38902;DHT22;24661;53.566;9.910;2023-04-30T14:05:28;15.40;99.90
38902;DHT22;24661;53.566;9.910;2023-04-30T14:07:54;15.70;99.90
38902;DHT22;24661;53.566;9.910;2023-04-30T14:10:20;15.70;99.90
38902;DHT22;24661;53.566;9.910;2023-04-30T14:12:45;15.80;99.90
38902;DHT22;24661;53.566;9.910;2023-04-30T14:15:13;15.60;99.90
38902;DHT22;24661;53.566;9.910;2023-04-30T14:17:39;15.90;99.90
38902;DHT22;24661;53.566;9.910;2023-04-30T14:20:05;16.00;99.90
38902;DHT22;24661;53.566;9.910;2023-04-30T14:22:30;15.80;99.90
38902;DHT22;24661;53.566;9.910;2023-04-30T14:24:59;15.80;99.90
38902;DHT22;24661;53.566;9.910;2023-04-30T14:27:24;15.60;99.90
38902;DHT22;24661;53.566;9.910;2023-04-30T14:29:50;15.40;99.90
38902;DHT22;24661;53.566;9.910;2023-04-30T14:32:16;15.20;99.90
38902;DHT22;24661;53.566;9.910;2023-04-30T14:34:41;15.20;99.90
38902;DHT22;24661;53.566;9.910;2023-04-30T14:37:07;15.20;99.90
38902;DHT22;24661;53.566;9.910;2023-04-30T14:39:32;15.50;99.90
38902;DHT22;24661;53.566;9.910;2023-04-30T14:41:58;15.20;99.90
38902;DHT22;24661;53.566;9.910;2023-04-30T14:44:33;15.20;99.90
38902;DHT22;24661;53.566;9.910;2023-04-30T14:46:59;15.10;99.90
38902;DHT22;24661;53.566;9.910;2023-04-30T14:49:25;15.20;99.90
38902;DHT22;24661;53.566;9.910;2023-04-30T14:51:50;15.20;99.90
38902;DHT22;24661;53.566;9.910;2023-04-30T14:54:16;15.30;99.90
38902;DHT22;24661;53.566;9.910;2023-04-30T14:56:43;15.30;99.90
38902;DHT22;24661;53.566;9.910;2023-04-30T14:59:09;15.30;99.90
38902;DHT22;24661;53.566;9.910;2023-04-30T15:01:36;15.40;99.90
38902;DHT22;24661;53.566;9.910;2023-04-30T15:04:02;16.00;99.90
38902;DHT22;24661;53.566;9.910;2023-04-30T15:06:28;16.10;99.90
38902;DHT22;24661;53.566;9.910;2023-04-30T15:08:53;16.20;99.90
38902;DHT22;24661;53.566;9.910;2023-04-30T15:11:20;16.20;99.90
38902;DHT22;24661;53.566;9.910;2023-04-30T15:13:46;15.90;99.90
38902;DHT22;24661;53.566;9.910;2023-04-30T15:16:11;15.50;99.90
38902;DHT22;24661;53.566;9.910;2023-04-30T15:18:37;15.40;99.90
38902;DHT22;24661;53.566;9.910;2023-04-30T15:21:03;15.50;99.90
38902;DHT22;24661;53.566;9.910;2023-04-30T15:23:29;15.60;99.90
38902;DHT22;24661;53.566;9.910;2023-04-30T15:25:55;15.70;99.90
38902;DHT22;24661;53.566;9.910;2023-04-30T15:28:21;15.90;99.90
38902;DHT22;24661;53.566;9.910;2023-04-30T15:30:49;15.80;99.90
38902;DHT22;24661;53.566;9.910;2023-04-30T15:33:16;16.00;99.90
38902;DHT22;24661;53.566;9.910;2023-04-30T15:35:41;16.00;99.90
38902;DHT22;24661;53.566;9.910;2023-04-30T15:38:07;16.10;99.90
38902;DHT22;24661;53.566;9.910;2023-04-30T15:40:35;15.80;99.90
38902;DHT22;24661;53.566;9.910;2023-04-30T15:43:00;15.70;99.90
38902;DHT22;24661;53.566;9.910;2023-04-30T15:45:26;15.50;99.90
38902;DHT22;24661;53.566;9.910;2023-04-30T15:47:53;15.60;99.90
38902;DHT22;24661;53.566;9.910;2023-04-30T15:50:19;15.70;99.90
38902;DHT22;24661;53.566;9.910;2023-04-30T15:52:45;15.70;99.90
38902;DHT22;24661;53.566;9.910;2023-04-30T15:55:11;15.50;99.90
38902;DHT22;24661;53.566;9.910;2023-04-30T15:57:37;15.40;99.90
38902;DHT22;24661;53.566;9.910;2023-04-30T16:00:03;15.10;99.90
38902;DHT22;24661;53.566;9.910;2023-04-30T16:02:29;14.90;99.90
38902;DHT22;24661;53.566;9.910;2023-04-30T16:04:55;14.80;99.90
38902;DHT22;24661;53.566;9.910;2023-04-30T16:07:21;14.60;99.90
38902;DHT22;24661;53.566;9.910;2023-04-30T16:09:47;14.50;99.90
38902;DHT22;24661;53.566;9.910;2023-04-30T16:12:14;14.40;99.90